Airway Heights, Washington
Current Conditions -  °F | °C
As of 3:53 PM on Saturday 25 Oct 2014 (Local Time) from KGEG Reporting Station
Broken Clouds Broken Clouds  
Wind Chill: 19°   Ceiling: 13000
Heat Index: 19°   Visibility: 10mi
Dew Point:   Wind: 12mph
Humidity: 39%   Direction: 200°SSW
Pressure: 29.54"   Gusts: NA
Location:  47.64°N, 117.59°W
Report Text: KGEG 252253Z 20010KT 10SM SCT100 BKN130 19/05 A2954 RMK AO2 SLP997 VIRGA T01940050
Loading
Personal Weather Stations






























Interactive Weather Map
Tropical Storm Tracking
New forecast layout! Learn more

10-Day Weather Forecast

Advertisements
Track Severe Weather on mobile